createdAt,value
2024-03-24T00:00:34.077Z,775.00
2024-03-24T00:01:34.217Z,778.00
2024-03-24T00:02:34.408Z,759.00
2024-03-24T00:03:34.585Z,761.00
2024-03-24T00:04:34.790Z,777.00
2024-03-24T00:05:34.965Z,813.00
2024-03-24T00:06:35.115Z,890.00
2024-03-24T00:07:35.272Z,904.00
2024-03-24T00:08:35.427Z,886.00
2024-03-24T00:09:35.598Z,866.00
2024-03-24T00:10:35.792Z,870.00
2024-03-24T00:11:35.971Z,913.00
2024-03-24T00:12:36.193Z,932.00
2024-03-24T00:13:36.349Z,909.00
2024-03-24T00:14:36.479Z,927.00
2024-03-24T00:15:36.627Z,922.00
2024-03-24T00:16:36.805Z,923.00
2024-03-24T00:17:37.041Z,929.00
2024-03-24T00:18:37.143Z,960.00
2024-03-24T00:19:37.299Z,968.00
2024-03-24T00:20:37.477Z,991.00
2024-03-24T00:21:37.634Z,1003.00
2024-03-24T00:22:37.796Z,989.00
2024-03-24T00:23:37.932Z,1009.00
2024-03-24T00:24:38.118Z,1007.00
2024-03-24T00:25:38.325Z,975.00
2024-03-24T00:26:38.521Z,968.00
2024-03-24T00:27:38.770Z,954.00
2024-03-24T00:28:38.913Z,969.00
2024-03-24T00:29:39.099Z,971.00
2024-03-24T00:30:39.285Z,970.00
2024-03-24T00:31:39.444Z,979.00
2024-03-24T00:32:39.631Z,994.00
2024-03-24T00:33:39.821Z,995.00
2024-03-24T00:34:39.999Z,998.00
2024-03-24T00:35:40.186Z,973.00
2024-03-24T00:36:40.338Z,944.00
2024-03-24T00:37:40.558Z,925.00
2024-03-24T00:38:40.715Z,876.00
2024-03-24T00:39:43.361Z,857.00
2024-03-24T00:40:41.036Z,858.00
2024-03-24T00:41:41.209Z,857.00
2024-03-24T00:42:41.357Z,861.00
2024-03-24T00:43:41.471Z,892.00
2024-03-24T00:44:42.687Z,942.00
2024-03-24T00:45:41.751Z,993.00
2024-03-24T00:46:41.899Z,997.00
2024-03-24T00:47:42.058Z,982.00
2024-03-24T00:48:42.169Z,949.00
2024-03-24T00:49:42.320Z,926.00
2024-03-24T00:50:42.468Z,825.00
2024-03-24T00:51:42.598Z,803.00
2024-03-24T00:52:42.761Z,794.00
2024-03-24T00:53:42.877Z,794.00
2024-03-24T00:54:43.027Z,788.00
2024-03-24T00:55:43.187Z,775.00
2024-03-24T00:56:43.354Z,755.00
2024-03-24T00:57:43.457Z,767.00
2024-03-24T00:58:43.604Z,738.00
2024-03-24T00:59:43.767Z,744.00
2024-03-24T01:00:43.889Z,752.00
2024-03-24T01:01:44.041Z,763.00
2024-03-24T01:02:44.172Z,789.00
2024-03-24T01:03:44.315Z,817.00
2024-03-24T01:04:44.468Z,817.00
2024-03-24T01:05:44.633Z,824.00
2024-03-24T01:06:44.776Z,848.00
2024-03-24T01:07:44.963Z,852.00
2024-03-24T01:08:45.097Z,865.00
2024-03-24T01:09:45.314Z,904.00
2024-03-24T01:10:45.491Z,912.00
2024-03-24T01:11:45.707Z,934.00
2024-03-24T01:12:45.917Z,939.00
2024-03-24T01:13:46.126Z,952.00
2024-03-24T01:14:46.346Z,971.00
2024-03-24T01:15:46.557Z,966.00
2024-03-24T01:16:46.709Z,973.00
2024-03-24T01:17:46.933Z,975.00
2024-03-24T01:18:47.091Z,964.00
2024-03-24T01:19:47.246Z,973.00
2024-03-24T01:20:47.422Z,984.00
2024-03-24T01:21:47.586Z,1015.00
2024-03-24T01:22:47.798Z,1031.00
2024-03-24T01:23:47.982Z,1020.00
2024-03-24T01:24:48.148Z,1026.00
2024-03-24T01:25:48.359Z,1043.00
2024-03-24T01:26:48.573Z,1044.00
2024-03-24T01:27:48.766Z,1036.00
2024-03-24T01:28:48.961Z,1073.00
2024-03-24T01:29:49.174Z,1095.00
2024-03-24T01:30:49.423Z,1105.00
2024-03-24T01:31:49.640Z,1110.00
2024-03-24T01:32:49.845Z,1132.00
2024-03-24T01:33:50.065Z,1155.00
2024-03-24T01:34:50.290Z,1125.00
2024-03-24T01:35:50.427Z,1121.00
2024-03-24T01:36:50.635Z,1091.00
2024-03-24T01:37:50.849Z,1090.00
2024-03-24T01:38:51.014Z,1107.00
2024-03-24T01:39:51.240Z,1122.00
2024-03-24T01:40:51.453Z,1135.00
2024-03-24T01:41:51.592Z,1154.00
2024-03-24T01:42:51.808Z,1172.00
2024-03-24T01:43:52.007Z,1234.00
2024-03-24T01:44:52.235Z,1213.00
2024-03-24T01:45:52.443Z,1210.00
2024-03-24T01:46:52.666Z,1201.00
2024-03-24T01:47:52.873Z,1187.00
2024-03-24T01:48:53.056Z,1153.00
2024-03-24T01:49:53.285Z,1137.00
2024-03-24T01:50:53.469Z,1141.00
2024-03-24T01:51:53.665Z,1163.00
2024-03-24T01:52:53.925Z,1131.00
2024-03-24T01:53:54.198Z,1130.00
2024-03-24T01:54:54.370Z,1130.00
2024-03-24T01:55:54.558Z,1152.00
2024-03-24T01:56:54.730Z,1142.00
2024-03-24T01:57:54.999Z,1143.00
2024-03-24T01:58:55.099Z,1111.00
2024-03-24T01:59:55.258Z,1103.00
2024-03-24T02:00:55.476Z,1093.00
2024-03-24T02:01:55.628Z,1095.00
2024-03-24T02:02:55.810Z,1069.00
2024-03-24T02:03:56.002Z,1065.00
2024-03-24T02:04:56.179Z,1052.00
2024-03-24T02:05:56.402Z,1038.00
2024-03-24T02:06:56.669Z,1017.00
2024-03-24T02:07:56.826Z,1005.00
2024-03-24T02:08:57.023Z,993.00
2024-03-24T02:09:57.244Z,989.00
2024-03-24T02:10:57.421Z,982.00
2024-03-24T02:11:57.607Z,988.00
2024-03-24T02:12:57.809Z,967.00
2024-03-24T02:13:58.030Z,998.00
2024-03-24T02:14:58.273Z,998.00
2024-03-24T02:15:58.485Z,999.00
2024-03-24T02:16:58.699Z,991.00
2024-03-24T02:18:00.662Z,985.00
2024-03-24T02:18:59.087Z,979.00
2024-03-24T02:19:59.238Z,978.00
2024-03-24T02:20:59.441Z,961.00
2024-03-24T02:21:59.673Z,960.00
2024-03-24T02:22:59.941Z,981.00
2024-03-24T02:23:59.957Z,1028.00
2024-03-24T02:25:00.214Z,1056.00
2024-03-24T02:26:00.315Z,1070.00
2024-03-24T02:27:00.529Z,1087.00
2024-03-24T02:28:00.748Z,1116.00
2024-03-24T02:29:00.896Z,1146.00
2024-03-24T02:30:01.149Z,1140.00
2024-03-24T02:31:01.318Z,1136.00
2024-03-24T02:32:01.478Z,1188.00
2024-03-24T02:33:01.723Z,1204.00
2024-03-24T02:34:01.881Z,1189.00
2024-03-24T02:35:02.060Z,1174.00
2024-03-24T02:36:02.315Z,1179.00
2024-03-24T02:37:02.424Z,1173.00
2024-03-24T02:38:02.612Z,1179.00
2024-03-24T02:39:02.761Z,1192.00
2024-03-24T02:40:02.950Z,1191.00
2024-03-24T02:41:03.132Z,1207.00
2024-03-24T02:42:03.340Z,1206.00
2024-03-24T02:43:03.496Z,1220.00
2024-03-24T02:44:03.688Z,1221.00
2024-03-24T02:45:03.871Z,1193.00
2024-03-24T02:46:04.080Z,1207.00
2024-03-24T02:47:04.310Z,1205.00
2024-03-24T02:48:04.443Z,1286.00
2024-03-24T02:49:04.619Z,1286.00
2024-03-24T02:50:04.781Z,1272.00
2024-03-24T02:51:05.011Z,1271.00
2024-03-24T02:52:05.177Z,1274.00
2024-03-24T02:53:05.331Z,1265.00
2024-03-24T02:54:05.487Z,1288.00
2024-03-24T02:55:05.673Z,1304.00
2024-03-24T02:56:05.839Z,1315.00
2024-03-24T02:57:06.023Z,1341.00
2024-03-24T02:58:07.300Z,1417.00
2024-03-24T02:59:06.368Z,1491.00
2024-03-24T03:00:07.461Z,1512.00
2024-03-24T03:01:06.746Z,1485.00
2024-03-24T03:02:06.909Z,1471.00
2024-03-24T03:03:07.119Z,1460.00
2024-03-24T03:04:07.295Z,1478.00
2024-03-24T03:05:07.504Z,1469.00
2024-03-24T03:06:07.714Z,1487.00
2024-03-24T03:07:08.019Z,1472.00
2024-03-24T03:08:08.165Z,1492.00
2024-03-24T03:09:08.340Z,1527.00
2024-03-24T03:10:10.328Z,1586.00
2024-03-24T03:11:08.698Z,1600.00
2024-03-24T03:12:08.871Z,1558.00
2024-03-24T03:13:09.044Z,1551.00
2024-03-24T03:14:09.199Z,1508.00
2024-03-24T03:15:09.341Z,1477.00
2024-03-24T03:16:09.529Z,1485.00
2024-03-24T03:17:09.651Z,1533.00
2024-03-24T03:18:09.827Z,1514.00
2024-03-24T03:19:10.004Z,1528.00
2024-03-24T03:20:10.139Z,1583.00
2024-03-24T03:21:10.322Z,1544.00
2024-03-24T03:22:10.571Z,1516.00
2024-03-24T03:23:10.737Z,1504.00
2024-03-24T03:24:10.938Z,1505.00
2024-03-24T03:25:11.136Z,1478.00
2024-03-24T03:26:11.335Z,1463.00
2024-03-24T03:27:11.500Z,1457.00
2024-03-24T03:28:11.674Z,1466.00
2024-03-24T03:29:11.854Z,1459.00
2024-03-24T03:30:12.000Z,1482.00
2024-03-24T03:31:12.193Z,1526.00
2024-03-24T03:32:12.341Z,1550.00
2024-03-24T03:33:12.588Z,1524.00
2024-03-24T03:34:12.767Z,1511.00
2024-03-24T03:35:12.928Z,1496.00
2024-03-24T03:36:13.126Z,1479.00
2024-03-24T03:37:13.385Z,1470.00
2024-03-24T03:38:13.564Z,1458.00
2024-03-24T03:39:13.774Z,1461.00
2024-03-24T03:40:14.061Z,1477.00
2024-03-24T03:41:14.250Z,1483.00
2024-03-24T03:42:14.461Z,1480.00
2024-03-24T03:43:14.639Z,1479.00
2024-03-24T03:44:14.830Z,1473.00
2024-03-24T03:45:15.039Z,1466.00
2024-03-24T03:46:15.364Z,1450.00
2024-03-24T03:47:15.441Z,1435.00
2024-03-24T03:48:15.681Z,1423.00
2024-03-24T03:49:15.891Z,1388.00
2024-03-24T03:50:16.051Z,1361.00
2024-03-24T03:51:16.270Z,1364.00
2024-03-24T03:52:16.488Z,1378.00
2024-03-24T03:53:16.689Z,1388.00
2024-03-24T03:54:16.891Z,1366.00
2024-03-24T03:55:17.103Z,1332.00
2024-03-24T03:56:17.259Z,1292.00
2024-03-24T03:57:17.458Z,1258.00
2024-03-24T03:58:17.678Z,1241.00
2024-03-24T03:59:17.871Z,1243.00
2024-03-24T04:00:18.053Z,1315.00
2024-03-24T04:01:18.258Z,1404.00
2024-03-24T04:02:18.472Z,1479.00
2024-03-24T04:03:18.724Z,1503.00
2024-03-24T04:04:18.867Z,1584.00
2024-03-24T04:05:19.106Z,1643.00
2024-03-24T04:06:19.287Z,1681.00
2024-03-24T04:07:19.511Z,1698.00
2024-03-24T04:08:19.656Z,1754.00
2024-03-24T04:09:19.853Z,1781.00
2024-03-24T04:10:20.031Z,1820.00
2024-03-24T04:11:20.216Z,1849.00
2024-03-24T04:12:20.410Z,1867.00
2024-03-24T04:13:20.593Z,1873.00
2024-03-24T04:14:20.827Z,1870.00
2024-03-24T04:15:21.033Z,1909.00
2024-03-24T04:16:21.253Z,1888.00
2024-03-24T04:17:21.476Z,1870.00
2024-03-24T04:18:21.660Z,1882.00
2024-03-24T04:19:21.858Z,1910.00
2024-03-24T04:20:22.032Z,1939.00
2024-03-24T04:21:22.203Z,1929.00
2024-03-24T04:22:22.428Z,1934.00
2024-03-24T04:23:22.605Z,1937.00
2024-03-24T04:24:22.801Z,1926.00
2024-03-24T04:25:23.018Z,1906.00
2024-03-24T04:26:23.195Z,1908.00
2024-03-24T04:27:23.404Z,1922.00
2024-03-24T04:28:23.618Z,1896.00
2024-03-24T04:29:23.832Z,1885.00
2024-03-24T04:30:24.016Z,1886.00
2024-03-24T04:31:24.258Z,1871.00
2024-03-24T04:32:24.454Z,1860.00
2024-03-24T04:33:24.648Z,1842.00
2024-03-24T04:34:24.788Z,1831.00
2024-03-24T04:35:24.984Z,1821.00
2024-03-24T04:36:25.202Z,1811.00
2024-03-24T04:37:25.428Z,1802.00
2024-03-24T04:38:25.712Z,1792.00
2024-03-24T04:39:25.836Z,1775.00
2024-03-24T04:40:26.023Z,1764.00
2024-03-24T04:41:26.202Z,1732.00
2024-03-24T04:42:26.376Z,1747.00
2024-03-24T04:43:26.530Z,1739.00
2024-03-24T04:44:26.694Z,1710.00
2024-03-24T04:45:26.886Z,1715.00
2024-03-24T04:46:27.062Z,1725.00
2024-03-24T04:47:27.315Z,1720.00
2024-03-24T04:48:27.514Z,1717.00
2024-03-24T04:49:27.586Z,1702.00
2024-03-24T04:50:27.762Z,1692.00
2024-03-24T04:51:27.947Z,1665.00
2024-03-24T04:52:28.195Z,1637.00
2024-03-24T04:53:28.366Z,1616.00
2024-03-24T04:54:28.598Z,1585.00
2024-03-24T04:55:28.863Z,1570.00
2024-03-24T04:56:29.080Z,1556.00
2024-03-24T04:57:29.323Z,1550.00
2024-03-24T04:58:29.560Z,1551.00
2024-03-24T04:59:29.761Z,1563.00
2024-03-24T05:00:30.106Z,1598.00
2024-03-24T05:01:30.172Z,1645.00
2024-03-24T05:02:30.303Z,1696.00
2024-03-24T05:03:30.504Z,1717.00
2024-03-24T05:04:30.701Z,1754.00
2024-03-24T05:05:30.882Z,1767.00
2024-03-24T05:06:31.094Z,1811.00
2024-03-24T05:07:31.307Z,1798.00
2024-03-24T05:08:31.535Z,1798.00
2024-03-24T05:09:31.720Z,1790.00
2024-03-24T05:10:31.930Z,1810.00
2024-03-24T05:11:32.188Z,1816.00
2024-03-24T05:12:32.417Z,1823.00
2024-03-24T05:13:32.622Z,1847.00
2024-03-24T05:14:32.846Z,1844.00
2024-03-24T05:15:33.056Z,1848.00
2024-03-24T05:16:33.242Z,1826.00
2024-03-24T05:17:40.795Z,600.00
2024-03-24T05:18:40.804Z,600.00
2024-03-24T05:19:40.807Z,600.00
2024-03-24T05:20:40.855Z,600.00
2024-03-24T05:21:40.854Z,600.00
2024-03-24T05:22:40.876Z,601.00
2024-03-24T05:23:40.935Z,598.00
2024-03-24T05:24:40.940Z,600.00
2024-03-24T05:25:40.944Z,601.00
2024-03-24T05:26:40.964Z,602.00
2024-03-24T05:27:40.982Z,606.00
2024-03-24T05:28:50.214Z,610.00
2024-03-24T05:29:42.052Z,610.00
2024-03-24T05:30:41.038Z,613.00
2024-03-24T05:31:41.089Z,622.00
2024-03-24T05:32:41.103Z,636.00
2024-03-24T05:33:41.118Z,656.00
2024-03-24T05:34:41.117Z,667.00
2024-03-24T05:35:41.139Z,683.00
2024-03-24T05:36:41.141Z,690.00
2024-03-24T05:37:41.197Z,661.00
2024-03-24T05:38:41.214Z,656.00
2024-03-24T05:39:41.226Z,658.00
2024-03-24T05:40:41.266Z,647.00
2024-03-24T05:41:41.283Z,647.00
2024-03-24T05:42:41.309Z,643.00
2024-03-24T05:43:41.337Z,642.00
2024-03-24T05:44:41.409Z,644.00
2024-03-24T05:45:41.506Z,642.00
2024-03-24T05:46:41.545Z,649.00
2024-03-24T05:47:41.620Z,641.00
2024-03-24T05:48:41.685Z,635.00
2024-03-24T05:49:41.738Z,625.00
2024-03-24T05:50:41.780Z,622.00
2024-03-24T05:51:41.856Z,614.00
2024-03-24T05:52:41.919Z,614.00
2024-03-24T05:53:41.987Z,604.00
2024-03-24T05:54:42.027Z,607.00
2024-03-24T05:55:42.074Z,606.00
2024-03-24T05:56:42.101Z,605.00
2024-03-24T05:57:42.140Z,600.00
2024-03-24T05:58:42.198Z,620.00
2024-03-24T05:59:42.229Z,614.00
2024-03-24T06:00:42.333Z,619.00
2024-03-24T06:01:44.701Z,607.00
2024-03-24T06:02:42.416Z,600.00
2024-03-24T06:03:42.447Z,600.00
2024-03-24T06:04:42.458Z,601.00
2024-03-24T06:05:42.457Z,600.00
2024-03-24T06:06:42.529Z,600.00
2024-03-24T06:07:42.505Z,600.00
2024-03-24T06:08:42.523Z,600.00
2024-03-24T06:09:42.548Z,602.00
2024-03-24T06:10:42.559Z,630.00
2024-03-24T06:11:42.561Z,641.00
2024-03-24T06:12:42.563Z,645.00
2024-03-24T06:13:42.572Z,643.00
2024-03-24T06:14:42.598Z,646.00
2024-03-24T06:15:42.616Z,655.00
2024-03-24T06:16:42.615Z,664.00
2024-03-24T06:17:42.648Z,691.00
2024-03-24T06:18:42.655Z,709.00
2024-03-24T06:19:42.666Z,706.00
2024-03-24T06:20:42.698Z,724.00
2024-03-24T06:21:42.720Z,734.00
2024-03-24T06:22:42.735Z,716.00
2024-03-24T06:23:42.733Z,699.00
2024-03-24T06:24:42.745Z,716.00
2024-03-24T06:25:42.755Z,707.00
2024-03-24T06:26:42.785Z,726.00
2024-03-24T06:27:42.761Z,746.00
2024-03-24T06:28:42.787Z,736.00
2024-03-24T06:29:42.795Z,740.00
2024-03-24T06:30:42.802Z,788.00
2024-03-24T06:31:44.637Z,801.00
2024-03-24T06:32:42.813Z,802.00
2024-03-24T06:33:42.814Z,804.00
2024-03-24T06:34:42.814Z,803.00
2024-03-24T06:35:42.836Z,806.00
2024-03-24T06:36:42.835Z,823.00
2024-03-24T06:37:42.848Z,844.00
2024-03-24T06:38:42.858Z,874.00
2024-03-24T06:39:42.864Z,913.00
2024-03-24T06:40:42.855Z,910.00
2024-03-24T06:41:42.873Z,901.00
2024-03-24T06:42:42.877Z,916.00
2024-03-24T06:43:42.887Z,911.00
2024-03-24T06:44:42.890Z,934.00
2024-03-24T06:45:42.891Z,941.00
2024-03-24T06:46:42.916Z,940.00
2024-03-24T06:47:42.932Z,940.00
2024-03-24T06:48:42.960Z,917.00
2024-03-24T06:49:42.959Z,919.00
2024-03-24T06:50:42.970Z,947.00
2024-03-24T06:51:42.994Z,954.00
2024-03-24T06:52:43.004Z,959.00
2024-03-24T06:53:43.005Z,984.00
2024-03-24T06:54:43.013Z,974.00
2024-03-24T06:55:43.009Z,983.00
2024-03-24T06:56:43.032Z,994.00
2024-03-24T06:57:43.029Z,972.00
2024-03-24T06:58:43.074Z,982.00
2024-03-24T06:59:43.091Z,996.00
2024-03-24T07:00:43.054Z,1008.00
2024-03-24T07:01:43.109Z,1016.00
2024-03-24T07:02:43.125Z,1030.00
2024-03-24T07:03:43.157Z,1055.00
2024-03-24T07:04:43.167Z,1050.00
2024-03-24T07:05:43.163Z,1044.00
2024-03-24T07:06:43.209Z,1042.00
2024-03-24T07:07:43.189Z,1047.00
2024-03-24T07:08:43.226Z,999.00
2024-03-24T07:09:43.220Z,983.00
2024-03-24T07:10:43.250Z,952.00
2024-03-24T07:11:43.214Z,927.00
2024-03-24T07:12:43.279Z,930.00
2024-03-24T07:13:43.287Z,896.00
2024-03-24T07:14:43.297Z,903.00
2024-03-24T07:15:43.304Z,879.00
2024-03-24T07:16:43.305Z,869.00
2024-03-24T07:17:43.366Z,850.00
2024-03-24T07:18:43.367Z,850.00
2024-03-24T07:19:43.398Z,850.00
2024-03-24T07:20:43.403Z,838.00
2024-03-24T07:21:43.402Z,840.00
2024-03-24T07:22:43.461Z,903.00
2024-03-24T07:23:43.433Z,869.00
2024-03-24T07:24:43.460Z,848.00
2024-03-24T07:25:43.467Z,849.00
2024-03-24T07:26:43.501Z,830.00
2024-03-24T07:27:43.499Z,798.00
2024-03-24T07:28:43.544Z,769.00
2024-03-24T07:29:43.571Z,755.00
2024-03-24T07:30:43.572Z,739.00
2024-03-24T07:31:43.621Z,760.00
2024-03-24T07:32:43.635Z,723.00
2024-03-24T07:33:43.684Z,690.00
2024-03-24T07:34:43.716Z,675.00
2024-03-24T07:35:43.726Z,667.00
2024-03-24T07:36:43.787Z,661.00
2024-03-24T07:37:43.835Z,689.00
2024-03-24T07:38:43.936Z,677.00
2024-03-24T07:39:43.977Z,673.00
2024-03-24T07:40:44.060Z,709.00
2024-03-24T07:41:46.167Z,756.00
2024-03-24T07:42:44.783Z,829.00
2024-03-24T07:43:44.123Z,816.00
2024-03-24T07:44:44.089Z,762.00
2024-03-24T07:45:44.120Z,756.00
2024-03-24T07:46:44.119Z,716.00
2024-03-24T07:47:44.153Z,687.00
2024-03-24T07:48:47.413Z,662.00
2024-03-24T07:49:45.123Z,662.00
2024-03-24T07:50:44.127Z,655.00
2024-03-24T07:51:44.149Z,644.00
2024-03-24T07:52:44.114Z,620.00
2024-03-24T07:53:44.167Z,609.00
2024-03-24T07:54:44.139Z,600.00
2024-03-24T07:55:44.148Z,580.00
2024-03-24T07:56:44.166Z,578.00
2024-03-24T07:57:44.177Z,575.00
2024-03-24T07:58:44.252Z,600.00
2024-03-24T07:59:44.328Z,601.00
2024-03-24T08:00:44.386Z,604.00
2024-03-24T08:01:44.473Z,607.00
2024-03-24T08:02:44.570Z,600.00
2024-03-24T08:03:44.618Z,600.00
2024-03-24T08:04:44.691Z,603.00
2024-03-24T08:05:44.780Z,600.00
2024-03-24T08:06:44.862Z,599.00
2024-03-24T08:07:44.947Z,597.00
2024-03-24T08:08:45.075Z,598.00
2024-03-24T08:09:45.120Z,600.00
2024-03-24T08:10:45.230Z,611.00
2024-03-24T08:11:45.278Z,600.00
2024-03-24T08:12:45.318Z,600.00
2024-03-24T08:13:45.393Z,600.00
2024-03-24T08:14:45.393Z,601.00
2024-03-24T08:15:45.479Z,600.00
2024-03-24T08:16:45.546Z,602.00
2024-03-24T08:17:45.618Z,609.00
2024-03-24T08:18:45.673Z,600.00
2024-03-24T08:19:45.732Z,603.00
2024-03-24T08:20:45.819Z,600.00
2024-03-24T08:21:45.880Z,608.00
2024-03-24T08:22:45.931Z,606.00
2024-03-24T08:23:45.963Z,615.00
2024-03-24T08:24:45.992Z,631.00
2024-03-24T08:25:46.015Z,643.00
2024-03-24T08:26:46.047Z,648.00
2024-03-24T08:27:46.075Z,631.00
2024-03-24T08:28:46.108Z,626.00
2024-03-24T08:29:46.203Z,619.00
2024-03-24T08:30:46.252Z,628.00
2024-03-24T08:31:46.322Z,632.00
2024-03-24T08:32:46.368Z,615.00
2024-03-24T08:33:46.437Z,612.00
2024-03-24T08:34:46.448Z,609.00
2024-03-24T08:35:46.499Z,600.00
2024-03-24T08:36:46.544Z,619.00
2024-03-24T08:37:46.547Z,623.00
2024-03-24T08:38:46.646Z,618.00
2024-03-24T08:39:46.668Z,623.00
2024-03-24T08:40:46.668Z,636.00
2024-03-24T08:41:46.689Z,611.00
2024-03-24T08:42:46.730Z,607.00
2024-03-24T08:43:46.775Z,627.00
2024-03-24T08:44:46.839Z,655.00
2024-03-24T08:45:46.908Z,654.00
2024-03-24T08:46:46.954Z,649.00
2024-03-24T08:47:47.005Z,745.00
2024-03-24T08:48:47.366Z,800.00
2024-03-24T08:49:47.066Z,782.00
2024-03-24T08:50:47.071Z,707.00
2024-03-24T08:51:47.153Z,662.00
2024-03-24T08:52:47.248Z,660.00
2024-03-24T08:53:47.560Z,659.00
2024-03-24T08:54:47.332Z,658.00
2024-03-24T08:55:47.375Z,658.00
2024-03-24T08:56:47.402Z,656.00
2024-03-24T08:57:47.392Z,650.00
2024-03-24T08:58:47.418Z,649.00
2024-03-24T08:59:47.464Z,647.00
2024-03-24T09:00:47.505Z,642.00
2024-03-24T09:01:47.535Z,636.00
2024-03-24T09:02:47.529Z,632.00
2024-03-24T09:03:47.535Z,646.00
2024-03-24T09:04:47.569Z,643.00
2024-03-24T09:05:47.739Z,658.00
2024-03-24T09:06:47.762Z,662.00
2024-03-24T09:07:47.814Z,722.00
2024-03-24T09:08:47.864Z,754.00
2024-03-24T09:09:47.940Z,742.00
2024-03-24T09:10:48.003Z,764.00
2024-03-24T09:11:48.076Z,774.00
2024-03-24T09:12:48.117Z,836.00
2024-03-24T09:13:48.211Z,827.00
2024-03-24T09:14:48.249Z,792.00
2024-03-24T09:15:48.256Z,777.00
2024-03-24T09:16:48.292Z,788.00
2024-03-24T09:17:48.288Z,767.00
2024-03-24T09:18:48.294Z,778.00
2024-03-24T09:19:48.361Z,812.00
2024-03-24T09:20:48.352Z,845.00
2024-03-24T09:21:48.362Z,907.00
2024-03-24T09:22:48.402Z,977.00
2024-03-24T09:23:48.449Z,1065.00
2024-03-24T09:24:48.544Z,1069.00
2024-03-24T09:25:48.641Z,1102.00
2024-03-24T09:26:48.726Z,1118.00
2024-03-24T09:27:48.789Z,1086.00
2024-03-24T09:28:48.868Z,1086.00
2024-03-24T09:29:48.935Z,1077.00
2024-03-24T09:30:49.021Z,1051.00
2024-03-24T09:31:49.105Z,1061.00
2024-03-24T09:32:49.170Z,1051.00
2024-03-24T09:33:49.213Z,1040.00
2024-03-24T09:34:49.649Z,1052.00
2024-03-24T09:35:49.280Z,1053.00
2024-03-24T09:36:50.227Z,1054.00
2024-03-24T09:37:49.388Z,1048.00
2024-03-24T09:38:49.455Z,1081.00
2024-03-24T09:39:49.513Z,1087.00
2024-03-24T09:40:49.571Z,1076.00
2024-03-24T09:41:49.599Z,1077.00
2024-03-24T09:42:49.710Z,1074.00
2024-03-24T09:43:49.762Z,1083.00
2024-03-24T09:44:49.761Z,1111.00
2024-03-24T09:45:49.774Z,1133.00
2024-03-24T09:46:49.836Z,1181.00
2024-03-24T09:47:49.929Z,1190.00
2024-03-24T09:48:49.997Z,1200.00
2024-03-24T09:49:50.047Z,1257.00
2024-03-24T09:50:50.077Z,1247.00
2024-03-24T09:51:50.129Z,1273.00
2024-03-24T09:52:50.179Z,1302.00
2024-03-24T09:53:50.238Z,1297.00
2024-03-24T09:54:50.286Z,1251.00
2024-03-24T09:55:50.292Z,1230.00
2024-03-24T09:56:50.402Z,1251.00
2024-03-24T09:57:57.052Z,1303.00
2024-03-24T09:58:51.451Z,1303.00
2024-03-24T09:59:50.482Z,1298.00
2024-03-24T10:00:50.465Z,1263.00
2024-03-24T10:01:50.485Z,1223.00
2024-03-24T10:02:50.486Z,1216.00
2024-03-24T10:03:50.518Z,1210.00
2024-03-24T10:04:50.516Z,1203.00
2024-03-24T10:05:50.516Z,1242.00
2024-03-24T10:06:50.533Z,1265.00
2024-03-24T10:07:50.596Z,1251.00
2024-03-24T10:08:50.680Z,1274.00
2024-03-24T10:09:50.611Z,1293.00
2024-03-24T10:10:50.656Z,1333.00
2024-03-24T10:11:50.668Z,1309.00
2024-03-24T10:12:50.672Z,1298.00
2024-03-24T10:13:50.683Z,1287.00
2024-03-24T10:14:50.732Z,1245.00
2024-03-24T10:15:50.754Z,1279.00
2024-03-24T10:16:50.762Z,1271.00
2024-03-24T10:17:50.829Z,1263.00
2024-03-24T10:18:50.891Z,1218.00
2024-03-24T10:19:50.978Z,1246.00
2024-03-24T10:20:50.961Z,1284.00
2024-03-24T10:21:51.039Z,1364.00
2024-03-24T10:22:51.094Z,1371.00
2024-03-24T10:23:51.128Z,1401.00
2024-03-24T10:24:51.182Z,1410.00
2024-03-24T10:25:51.231Z,1375.00
2024-03-24T10:26:51.287Z,1372.00
2024-03-24T10:27:51.319Z,1399.00
2024-03-24T10:28:51.355Z,1424.00
2024-03-24T10:29:51.380Z,1379.00
2024-03-24T10:30:51.379Z,1397.00
2024-03-24T10:31:53.245Z,1376.00
2024-03-24T10:32:51.444Z,1387.00
2024-03-24T10:33:51.450Z,1378.00
2024-03-24T10:34:51.462Z,1375.00
2024-03-24T10:35:51.480Z,1408.00
2024-03-24T10:36:51.507Z,1416.00
2024-03-24T10:37:51.570Z,1480.00
2024-03-24T10:38:51.594Z,1419.00
2024-03-24T10:39:51.692Z,1413.00
2024-03-24T10:40:54.929Z,1388.00
2024-03-24T10:41:51.705Z,1362.00
2024-03-24T10:42:51.674Z,1338.00
2024-03-24T10:43:51.696Z,1363.00
2024-03-24T10:44:51.688Z,1394.00
2024-03-24T10:45:51.685Z,1428.00
2024-03-24T10:46:51.659Z,1477.00
2024-03-24T10:47:51.633Z,1426.00
2024-03-24T10:48:51.639Z,1401.00
2024-03-24T10:49:51.624Z,1369.00
2024-03-24T10:50:51.601Z,1284.00
2024-03-24T10:51:51.626Z,1274.00
2024-03-24T10:52:53.667Z,1284.00
2024-03-24T10:53:51.574Z,1284.00
2024-03-24T10:54:51.584Z,1214.00
2024-03-24T10:55:51.595Z,1191.00
2024-03-24T10:56:51.553Z,1170.00
2024-03-24T10:57:51.555Z,1174.00
2024-03-24T10:58:51.511Z,1143.00
2024-03-24T10:59:51.531Z,1107.00
2024-03-24T11:00:51.472Z,1033.00
2024-03-24T11:01:51.481Z,996.00
2024-03-24T11:02:51.462Z,995.00
2024-03-24T11:03:51.442Z,958.00
2024-03-24T11:04:51.458Z,1021.00
2024-03-24T11:05:51.410Z,979.00
2024-03-24T11:06:51.398Z,1050.00
2024-03-24T11:07:51.379Z,973.00
2024-03-24T11:08:51.320Z,925.00
2024-03-24T11:09:51.334Z,972.00
2024-03-24T11:10:51.309Z,912.00
2024-03-24T11:11:51.294Z,990.00
2024-03-24T11:12:51.310Z,941.00
2024-03-24T11:13:51.278Z,924.00
2024-03-24T11:14:51.244Z,929.00
2024-03-24T11:15:51.218Z,909.00
2024-03-24T11:16:51.160Z,886.00
2024-03-24T11:17:51.170Z,879.00
2024-03-24T11:18:52.669Z,946.00
2024-03-24T11:19:51.096Z,988.00
2024-03-24T11:20:51.058Z,946.00
2024-03-24T11:21:51.003Z,902.00
2024-03-24T11:22:50.958Z,929.00
2024-03-24T11:23:50.917Z,915.00
2024-03-24T11:24:50.877Z,978.00
2024-03-24T11:25:50.826Z,1058.00
2024-03-24T11:26:50.784Z,1117.00
2024-03-24T11:27:50.688Z,1064.00
2024-03-24T11:28:50.651Z,1107.00
2024-03-24T11:29:52.568Z,1078.00
2024-03-24T11:30:50.529Z,1063.00
2024-03-24T11:31:50.464Z,1079.00
2024-03-24T11:32:50.396Z,1041.00
2024-03-24T11:33:50.333Z,1028.00
2024-03-24T11:34:50.349Z,1097.00
2024-03-24T11:35:50.232Z,1112.00
2024-03-24T11:36:50.168Z,1071.00
2024-03-24T11:37:50.077Z,1000.00
2024-03-24T11:38:50.051Z,1050.00
2024-03-24T11:39:49.992Z,1058.00
2024-03-24T11:40:53.038Z,1048.00
2024-03-24T11:41:49.869Z,1048.00
2024-03-24T11:42:49.783Z,1054.00
2024-03-24T11:43:49.721Z,1040.00
2024-03-24T11:44:49.713Z,1077.00
2024-03-24T11:45:49.633Z,1101.00
2024-03-24T11:46:49.575Z,1083.00
2024-03-24T11:47:49.493Z,966.00
2024-03-24T11:48:49.446Z,987.00
2024-03-24T11:49:49.484Z,940.00
2024-03-24T11:50:49.277Z,903.00
2024-03-24T11:51:49.227Z,968.00
2024-03-24T11:52:52.483Z,1039.00
2024-03-24T11:53:49.075Z,1040.00
2024-03-24T11:54:48.973Z,1016.00
2024-03-24T11:55:49.012Z,1003.00
2024-03-24T11:56:48.838Z,1020.00
2024-03-24T11:57:48.791Z,912.00
2024-03-24T11:58:48.715Z,900.00
2024-03-24T11:59:48.656Z,1014.00
2024-03-24T12:00:48.619Z,1015.00
2024-03-24T12:01:48.513Z,1102.00
2024-03-24T12:02:48.421Z,1101.00
2024-03-24T12:03:48.363Z,964.00
2024-03-24T12:04:48.258Z,937.00
2024-03-24T12:05:48.194Z,927.00
2024-03-24T12:06:48.127Z,847.00
2024-03-24T12:07:48.045Z,875.00
2024-03-24T12:08:47.986Z,859.00
2024-03-24T12:09:47.889Z,865.00
2024-03-24T12:10:47.832Z,947.00
2024-03-24T12:11:47.734Z,962.00
2024-03-24T12:12:47.661Z,959.00
2024-03-24T12:13:47.596Z,952.00
2024-03-24T12:14:47.506Z,1000.00
2024-03-24T12:15:47.440Z,985.00
2024-03-24T12:16:47.343Z,1082.00
2024-03-24T12:17:47.253Z,1100.00
2024-03-24T12:18:47.152Z,1112.00